Strinestown, Pennsylvania
Current Conditions -  °F | °C
As of 2:56 AM on Saturday 01 Nov 2014 (Local Time) from KMDT Reporting Station
Broken Clouds Broken Clouds  
Wind Chill: 42°   Ceiling: 3100
Heat Index: 46°   Visibility: 10mi
Dew Point: 39°   Wind: 7mph
Humidity: 76%   Direction: 310°NW
Pressure: 29.82"   Gusts: NA
Location:  40.0596°N, 76.7235°W
Report Text: KMDT 010656Z 31006KT 10SM BKN031 BKN180 08/04 A2982 RMK AO2 SLP101 T00780039
Loading
Personal Weather Stations






























Interactive Weather Map
Tropical Storm Tracking
New forecast layout! Learn more

10-Day Weather Forecast

Advertisements
Track Severe Weather on mobile